Time;durP1;ratioP1;P1;durP2;ratioP2;P2;SDS_P1;SDS_P2;PMS_P1;PMS_P2;Temp;Humidity;BMP_temperature;BMP_pressure;BME280_temperature;BME280_humidity;BME280_pressure;Samples;Min_cycle;Max_cycle;Signal;HPM_P1;HPM_P2
2024/04/04 00:02:21;;;;;;;1.87;0.67;;;11.90;99.90;;;;;;4968934;28;20187;-76
2024/04/04 00:04:57;;;;;;;4.53;0.90;;;11.90;99.90;;;;;;4956918;28;20304;-76
2024/04/04 00:07:23;;;;;;;5.57;0.93;;;11.90;99.90;;;;;;4961190;28;20168;-76
2024/04/04 00:09:51;;;;;;;6.23;1.30;;;11.80;99.90;;;;;;4960689;28;20592;-76
2024/04/04 00:12:19;;;;;;;3.60;0.80;;;11.80;99.90;;;;;;4956832;28;20188;-76
2024/04/04 00:14:46;;;;;;;3.60;0.80;;;11.80;99.90;;;;;;4954821;28;20239;-76
2024/04/04 00:17:12;;;;;;;1.83;0.60;;;11.80;99.90;;;;;;4951222;28;20674;-76
2024/04/04 00:19:37;;;;;;;1.70;0.60;;;11.70;99.90;;;;;;4952559;28;20230;-76
2024/04/04 00:22:03;;;;;;;2.30;0.87;;;11.70;99.90;;;;;;4951672;28;20184;-76
2024/04/04 00:24:29;;;;;;;1.70;0.67;;;11.70;99.90;;;;;;4952481;28;20191;-76
2024/04/04 00:26:56;;;;;;;2.60;0.77;;;11.70;99.90;;;;;;4951151;28;20618;-76
2024/04/04 00:29:22;;;;;;;2.13;0.70;;;11.70;99.90;;;;;;4935167;29;20181;-74
2024/04/04 00:31:48;;;;;;;2.17;0.80;;;11.70;99.90;;;;;;4952251;28;20831;-74
2024/04/04 00:34:13;;;;;;;4.60;1.10;;;11.80;99.90;;;;;;4950895;28;20183;-74
2024/04/04 00:36:39;;;;;;;2.07;0.60;;;11.80;99.90;;;;;;4948658;28;20209;-74
2024/04/04 00:39:05;;;;;;;3.50;0.70;;;11.80;99.90;;;;;;4949248;28;20258;-75
2024/04/04 00:41:31;;;;;;;5.03;0.90;;;11.90;99.90;;;;;;5029019;28;20550;-74
2024/04/04 00:43:56;;;;;;;2.90;0.80;;;11.90;99.90;;;;;;4956908;28;20208;-74
2024/04/04 00:46:23;;;;;;;2.40;0.57;;;12.00;99.90;;;;;;4934960;29;20677;-74
2024/04/04 00:48:50;;;;;;;4.28;0.80;;;12.00;99.90;;;;;;4953891;28;20634;-75
2024/04/04 00:51:16;;;;;;;2.95;0.68;;;12.00;99.90;;;;;;4955651;28;20223;-74
2024/04/04 00:53:42;;;;;;;1.70;0.60;;;12.10;99.90;;;;;;4953712;28;20240;-74
2024/04/04 00:56:07;;;;;;;1.73;0.60;;;12.20;99.90;;;;;;4950560;28;20633;-74
2024/04/04 00:58:35;;;;;;;3.30;1.17;;;12.20;99.90;;;;;;4950465;28;20180;-74
2024/04/04 01:01:01;;;;;;;2.15;0.70;;;12.20;99.90;;;;;;4950329;29;20200;-74
2024/04/04 01:03:27;;;;;;;4.60;0.90;;;12.30;99.90;;;;;;4950492;28;20175;-74
2024/04/04 01:05:53;;;;;;;1.70;0.70;;;12.30;99.90;;;;;;4951351;28;20796;-74
2024/04/04 01:08:20;;;;;;;4.13;0.83;;;12.40;99.90;;;;;;4950198;28;20191;-75
2024/04/04 01:10:46;;;;;;;3.65;0.95;;;12.40;99.90;;;;;;4950084;28;20242;-75
2024/04/04 01:13:12;;;;;;;2.20;1.10;;;12.50;99.90;;;;;;4950437;29;20188;-75
2024/04/04 01:15:38;;;;;;;1.52;0.70;;;12.50;99.90;;;;;;4950357;28;20283;-75
2024/04/04 01:18:04;;;;;;;3.03;0.70;;;12.50;99.90;;;;;;4953555;28;20185;-76
2024/04/04 01:20:30;;;;;;;3.10;0.90;;;12.50;99.90;;;;;;4955765;29;20211;-74
2024/04/04 01:22:56;;;;;;;2.07;0.70;;;12.50;99.90;;;;;;4950117;28;21196;-74
2024/04/04 01:25:21;;;;;;;6.13;0.60;;;12.60;99.90;;;;;;4936930;29;20203;-74
2024/04/04 01:27:49;;;;;;;2.83;0.93;;;12.60;99.90;;;;;;4950771;28;20187;-74
2024/04/04 01:30:18;;;;;;;1.93;0.70;;;12.70;99.90;;;;;;4951294;29;20263;-75
2024/04/04 01:32:44;;;;;;;2.17;0.60;;;12.70;99.90;;;;;;4950067;28;20591;-75
2024/04/04 01:35:10;;;;;;;3.20;0.70;;;12.70;99.90;;;;;;4951093;28;20196;-75
2024/04/04 01:37:36;;;;;;;3.67;1.00;;;12.70;99.90;;;;;;4949781;28;20180;-74
2024/04/04 01:40:04;;;;;;;2.57;0.80;;;12.70;99.90;;;;;;4949652;28;20212;-75
2024/04/04 01:42:30;;;;;;;3.93;0.60;;;12.70;99.90;;;;;;4949868;29;20650;-74
2024/04/04 01:44:56;;;;;;;2.57;0.90;;;12.70;99.90;;;;;;4949572;28;20636;-74
2024/04/04 01:47:22;;;;;;;2.47;0.60;;;12.80;99.90;;;;;;4950829;28;21221;-74
2024/04/04 01:49:47;;;;;;;2.90;0.63;;;12.80;99.90;;;;;;4950826;28;20180;-74
2024/04/04 01:52:13;;;;;;;3.67;0.73;;;12.80;99.90;;;;;;4949577;28;20177;-75
2024/04/04 01:54:39;;;;;;;1.70;0.80;;;12.90;99.90;;;;;;4950447;28;20287;-74
2024/04/04 01:57:05;;;;;;;2.87;0.70;;;12.90;99.90;;;;;;4948967;28;20172;-74
2024/04/04 01:59:30;;;;;;;1.80;0.67;;;12.90;99.90;;;;;;4949422;28;20264;-74
2024/04/04 02:01:56;;;;;;;2.00;0.70;;;12.80;99.90;;;;;;4952913;28;20685;-74
2024/04/04 02:04:22;;;;;;;3.17;1.07;;;12.80;99.90;;;;;;4950535;28;20215;-74
2024/04/04 02:06:47;;;;;;;1.70;0.60;;;12.80;99.90;;;;;;4933463;28;20191;-74
2024/04/04 02:09:13;;;;;;;4.17;0.87;;;12.80;99.90;;;;;;4949173;28;20195;-74
2024/04/04 02:11:39;;;;;;;2.17;0.60;;;12.80;99.90;;;;;;4958617;28;20566;-74
2024/04/04 02:14:05;;;;;;;1.83;0.70;;;12.90;99.90;;;;;;4933540;28;20702;-74
2024/04/04 02:16:31;;;;;;;2.17;0.60;;;12.90;99.90;;;;;;4949454;28;20232;-74
2024/04/04 02:18:57;;;;;;;1.70;0.70;;;12.90;99.90;;;;;;4949198;28;20658;-76
2024/04/04 02:21:22;;;;;;;1.40;0.65;;;13.00;99.90;;;;;;4933270;28;20640;-74
2024/04/04 02:23:48;;;;;;;2.80;0.60;;;13.00;99.90;;;;;;4933262;29;20216;-74
2024/04/04 02:26:14;;;;;;;1.97;0.60;;;13.00;99.90;;;;;;4949349;28;20238;-74
2024/04/04 02:28:39;;;;;;;3.50;1.00;;;13.10;99.90;;;;;;4949060;28;20191;-74
2024/04/04 02:31:05;;;;;;;2.17;0.80;;;13.10;99.90;;;;;;4949125;29;20196;-74
2024/04/04 02:33:31;;;;;;;3.20;1.00;;;13.10;99.90;;;;;;4949235;29;20263;-74
2024/04/04 02:35:58;;;;;;;1.40;0.60;;;13.10;99.90;;;;;;4950227;28;20627;-74
2024/04/04 02:38:24;;;;;;;3.20;1.00;;;13.20;99.90;;;;;;4947808;28;20237;-75
2024/04/04 02:40:50;;;;;;;3.57;0.80;;;13.20;99.90;;;;;;4994522;28;20639;-74
2024/04/04 02:43:17;;;;;;;1.40;0.60;;;13.20;99.90;;;;;;4970424;28;20592;-74
2024/04/04 02:45:46;;;;;;;2.00;0.80;;;13.20;99.90;;;;;;4933296;29;20666;-74
2024/04/04 02:48:12;;;;;;;1.77;0.65;;;13.30;99.90;;;;;;4948746;29;20654;-74
2024/04/04 02:50:38;;;;;;;1.63;0.60;;;13.30;99.90;;;;;;4948892;28;20199;-74
2024/04/04 02:53:04;;;;;;;2.27;0.70;;;13.30;99.90;;;;;;4950051;28;20698;-74
2024/04/04 02:55:32;;;;;;;1.60;0.90;;;13.30;99.90;;;;;;4948879;28;20642;-74
2024/04/04 02:57:58;;;;;;;1.60;0.70;;;13.30;99.90;;;;;;4932553;29;20650;-74
2024/04/04 03:00:23;;;;;;;3.00;0.70;;;13.20;99.90;;;;;;4957968;28;20635;-74
2024/04/04 03:02:49;;;;;;;2.33;0.70;;;13.20;99.90;;;;;;4948457;28;20190;-74
2024/04/04 03:05:22;;;;;;;2.83;0.90;;;13.20;99.90;;;;;;4949646;28;20211;-74
2024/04/04 03:07:51;;;;;;;3.10;1.10;;;13.10;99.90;;;;;;4948299;28;20181;-74
2024/04/04 03:10:17;;;;;;;2.13;0.75;;;13.10;99.90;;;;;;4948731;28;20642;-74
2024/04/04 03:12:43;;;;;;;1.90;0.70;;;13.00;99.90;;;;;;4950111;28;20220;-74
2024/04/04 03:15:08;;;;;;;2.40;0.70;;;13.00;99.90;;;;;;4949837;28;20200;-74
2024/04/04 03:17:34;;;;;;;1.80;0.70;;;12.90;99.90;;;;;;4952613;28;20177;-74
2024/04/04 03:20:00;;;;;;;2.67;0.70;;;12.90;99.90;;;;;;4949523;28;20682;-74
2024/04/04 03:22:26;;;;;;;3.13;0.83;;;12.90;99.90;;;;;;4948299;28;20180;-74
2024/04/04 03:24:52;;;;;;;2.27;0.80;;;12.90;99.90;;;;;;4949375;28;20677;-74
2024/04/04 03:27:17;;;;;;;2.13;0.80;;;12.90;99.90;;;;;;4949525;29;20198;-74
2024/04/04 03:29:43;;;;;;;3.00;0.80;;;12.90;99.90;;;;;;4948647;28;20259;-74
2024/04/04 03:32:08;;;;;;;2.03;0.80;;;12.90;99.90;;;;;;4949655;28;20204;-74
2024/04/04 03:34:34;;;;;;;3.10;0.70;;;12.90;99.90;;;;;;4948217;28;20192;-74
2024/04/04 03:37:00;;;;;;;1.60;0.60;;;12.90;99.90;;;;;;4948096;28;20172;-74
2024/04/04 03:39:26;;;;;;;2.50;0.60;;;12.90;99.90;;;;;;4948401;29;20211;-74
2024/04/04 03:41:52;;;;;;;1.60;0.70;;;12.90;99.90;;;;;;4949333;28;20664;-73
2024/04/04 03:44:18;;;;;;;1.83;0.80;;;12.90;99.90;;;;;;4955459;28;20211;-74
2024/04/04 03:46:43;;;;;;;3.27;0.80;;;12.90;99.90;;;;;;4949485;28;20291;-74
2024/04/04 03:49:09;;;;;;;1.97;0.80;;;12.90;99.90;;;;;;4949065;28;20315;-74
2024/04/04 03:51:37;;;;;;;3.23;0.70;;;12.90;99.90;;;;;;4951294;28;20176;-74
2024/04/04 03:54:03;;;;;;;3.47;0.80;;;13.00;99.90;;;;;;4953759;28;20945;-74
2024/04/04 03:56:29;;;;;;;1.60;0.80;;;13.00;99.90;;;;;;4952820;28;20204;-74
2024/04/04 03:58:54;;;;;;;1.97;0.80;;;13.00;99.90;;;;;;4952633;28;20574;-74
2024/04/04 04:01:21;;;;;;;2.63;0.80;;;13.10;99.90;;;;;;4935563;29;20246;-74
2024/04/04 04:03:50;;;;;;;3.70;1.20;;;13.10;99.90;;;;;;4952579;29;20271;-74
2024/04/04 04:06:16;;;;;;;2.23;0.70;;;13.20;99.90;;;;;;4951235;28;20286;-74
2024/04/04 04:08:42;;;;;;;1.60;0.70;;;13.20;99.90;;;;;;4952313;28;20683;-74
2024/04/04 04:11:07;;;;;;;1.77;0.70;;;13.20;99.90;;;;;;4954960;28;20225;-74
2024/04/04 04:13:33;;;;;;;2.47;0.90;;;13.20;99.90;;;;;;4951194;28;20180;-74
2024/04/04 04:16:01;;;;;;;4.73;1.20;;;13.30;99.90;;;;;;4935214;29;20196;-74
2024/04/04 04:18:27;;;;;;;5.63;0.80;;;13.30;99.90;;;;;;4959240;28;20234;-74
2024/04/04 04:23:37;;;;;;;3.10;0.80;;;13.30;99.90;;;;;;4951487;28;20599;-74
2024/04/04 04:26:03;;;;;;;1.97;0.70;;;13.30;99.90;;;;;;4963450;28;20687;-74
2024/04/04 04:28:29;;;;;;;3.60;0.63;;;13.40;99.90;;;;;;4952952;28;20177;-74
2024/04/04 04:30:54;;;;;;;2.23;0.90;;;13.40;99.90;;;;;;4953675;29;20185;-74
2024/04/04 04:33:20;;;;;;;2.37;0.70;;;13.50;99.90;;;;;;4990147;28;20231;-74
2024/04/04 04:35:46;;;;;;;1.70;0.70;;;13.50;99.90;;;;;;5055293;28;20200;-74
2024/04/04 04:38:12;;;;;;;2.03;0.73;;;13.50;99.90;;;;;;5011602;28;20596;-74
2024/04/04 04:40:41;;;;;;;1.93;0.57;;;13.60;99.90;;;;;;5019729;28;20681;-74
2024/04/04 04:43:07;;;;;;;2.13;0.70;;;13.70;99.90;;;;;;4941538;28;20214;-74
2024/04/04 04:45:33;;;;;;;1.50;0.57;;;13.70;99.90;;;;;;5006150;28;20632;-74
2024/04/04 04:47:59;;;;;;;3.10;0.77;;;13.70;99.90;;;;;;4993481;28;20591;-74
2024/04/04 04:50:24;;;;;;;1.97;0.77;;;13.80;99.90;;;;;;4965882;28;20263;-74
2024/04/04 04:52:50;;;;;;;1.73;0.70;;;13.90;99.90;;;;;;4959941;28;20193;-74
2024/04/04 04:55:16;;;;;;;1.70;0.50;;;13.90;99.90;;;;;;4959824;28;20204;-74
2024/04/04 04:57:42;;;;;;;7.00;0.60;;;13.90;99.90;;;;;;4950471;28;20268;-75
2024/04/04 05:00:11;;;;;;;1.60;0.57;;;14.00;99.90;;;;;;4950411;28;20738;-74
2024/04/04 05:02:38;;;;;;;2.93;0.60;;;14.00;99.90;;;;;;4955941;28;20180;-74
2024/04/04 05:05:15;;;;;;;2.47;0.57;;;14.00;99.90;;;;;;4952977;28;20635;-74
2024/04/04 05:07:41;;;;;;;1.60;0.50;;;14.00;99.90;;;;;;4988109;28;20589;-74
2024/04/04 05:10:10;;;;;;;1.77;0.60;;;14.10;99.90;;;;;;5040265;28;20613;-74
2024/04/04 05:12:36;;;;;;;2.57;0.67;;;14.20;99.90;;;;;;4950369;28;21161;-75
2024/04/04 05:15:02;;;;;;;2.27;0.60;;;14.20;99.90;;;;;;4933969;29;20631;-75
2024/04/04 05:17:28;;;;;;;1.43;0.50;;;14.20;99.90;;;;;;4951224;28;20588;-75
2024/04/04 05:19:53;;;;;;;1.30;0.50;;;14.30;99.90;;;;;;4950126;28;21028;-75
2024/04/04 05:22:19;;;;;;;1.97;0.50;;;14.30;99.90;;;;;;4959274;28;20610;-75
2024/04/04 05:24:45;;;;;;;1.57;0.53;;;14.30;99.90;;;;;;4949982;28;20207;-75
2024/04/04 05:27:10;;;;;;;2.10;1.13;;;14.30;99.90;;;;;;4951052;29;20272;-74
2024/04/04 05:29:36;;;;;;;2.17;0.70;;;14.30;99.90;;;;;;4957202;28;20180;-74
2024/04/04 05:32:02;;;;;;;2.40;0.70;;;14.30;99.90;;;;;;4952222;28;20646;-74
2024/04/04 05:34:27;;;;;;;1.20;0.50;;;14.30;99.90;;;;;;4949976;29;20184;-74
2024/04/04 05:36:53;;;;;;;1.30;0.40;;;14.20;99.90;;;;;;4959182;28;20278;-74
2024/04/04 05:39:19;;;;;;;2.00;0.60;;;14.20;99.90;;;;;;4959033;28;20665;-74
2024/04/04 05:41:48;;;;;;;2.33;0.70;;;14.10;99.90;;;;;;4957979;28;21069;-74
2024/04/04 05:44:14;;;;;;;3.50;0.50;;;14.10;99.90;;;;;;4954810;28;20588;-74
2024/04/04 05:46:40;;;;;;;4.20;0.80;;;14.00;99.90;;;;;;4951092;28;21238;-74
2024/04/04 05:49:06;;;;;;;1.20;0.40;;;14.00;99.90;;;;;;4950801;28;20592;-74
2024/04/04 05:51:33;;;;;;;1.70;0.50;;;14.00;99.90;;;;;;4950979;28;20181;-74
2024/04/04 05:53:59;;;;;;;1.30;0.60;;;13.90;99.90;;;;;;4933607;28;20631;-74
2024/04/04 05:56:24;;;;;;;8.17;0.70;;;13.90;99.90;;;;;;4941802;29;20670;-74
2024/04/04 05:58:50;;;;;;;1.83;0.60;;;13.90;99.90;;;;;;4949574;28;20950;-75
2024/04/04 06:01:16;;;;;;;1.50;0.67;;;13.90;99.90;;;;;;4933048;28;20299;-74
2024/04/04 06:03:43;;;;;;;2.13;0.53;;;13.80;99.90;;;;;;5024817;28;20173;-74
2024/04/04 06:06:09;;;;;;;2.07;0.60;;;13.80;99.90;;;;;;4958460;28;20219;-75
2024/04/04 06:08:35;;;;;;;2.00;0.70;;;13.80;99.90;;;;;;4950485;28;20615;-74
2024/04/04 06:11:00;;;;;;;3.53;0.70;;;13.70;99.90;;;;;;4949337;28;20177;-74
2024/04/04 06:13:28;;;;;;;1.20;0.60;;;13.70;99.90;;;;;;4949051;28;20586;-74
2024/04/04 06:15:54;;;;;;;1.93;0.70;;;13.70;99.90;;;;;;4948435;28;20645;-74
2024/04/04 06:18:20;;;;;;;3.80;0.90;;;13.70;99.90;;;;;;4953451;28;20674;-74
2024/04/04 06:20:46;;;;;;;3.90;0.80;;;13.70;99.90;;;;;;4954206;28;20742;-74
2024/04/04 06:23:13;;;;;;;1.40;0.50;;;13.70;99.90;;;;;;4951153;28;20208;-74
2024/04/04 06:25:38;;;;;;;1.67;0.70;;;13.70;99.90;;;;;;4949049;28;20630;-74
2024/04/04 06:28:04;;;;;;;1.30;0.70;;;13.70;99.90;;;;;;4948943;28;21102;-74
2024/04/04 06:30:30;;;;;;;2.50;0.60;;;13.70;99.90;;;;;;4926466;29;20604;-74
2024/04/04 06:32:56;;;;;;;2.50;0.60;;;13.70;99.90;;;;;;4946935;28;20566;-74
2024/04/04 06:35:21;;;;;;;2.17;0.90;;;13.70;99.90;;;;;;5002870;28;20208;-73
2024/04/04 06:37:47;;;;;;;3.43;0.80;;;13.70;99.90;;;;;;4967021;28;20723;-74
2024/04/04 06:40:14;;;;;;;2.60;0.70;;;13.70;99.90;;;;;;5033671;28;20659;-73
2024/04/04 06:42:40;;;;;;;1.53;0.70;;;13.70;99.90;;;;;;4945260;29;20239;-74
2024/04/04 06:45:06;;;;;;;2.47;0.70;;;13.70;99.90;;;;;;4966494;28;20624;-74
2024/04/04 06:47:32;;;;;;;5.47;0.97;;;13.70;99.90;;;;;;5025464;28;20592;-74
2024/04/04 06:49:57;;;;;;;2.47;1.00;;;13.70;99.90;;;;;;4958079;28;21145;-74
2024/04/04 06:52:23;;;;;;;3.47;0.70;;;13.80;99.90;;;;;;4950296;28;20206;-74
2024/04/04 06:54:49;;;;;;;2.27;0.70;;;13.80;99.90;;;;;;4956460;28;20243;-74
2024/04/04 06:57:14;;;;;;;2.43;0.70;;;13.80;99.90;;;;;;4916777;29;20187;-74
2024/04/04 06:59:40;;;;;;;2.43;0.70;;;13.80;99.90;;;;;;4949950;28;20275;-75
2024/04/04 07:02:07;;;;;;;3.63;0.60;;;13.80;99.90;;;;;;4948525;28;20674;-74
2024/04/04 07:04:32;;;;;;;3.50;0.70;;;13.80;99.90;;;;;;4958496;28;20700;-74
2024/04/04 07:06:58;;;;;;;2.80;1.00;;;13.80;99.90;;;;;;4990344;28;20715;-74
2024/04/04 07:09:24;;;;;;;2.47;0.70;;;13.80;99.90;;;;;;4990764;28;20592;-73
2024/04/04 07:11:50;;;;;;;2.00;0.63;;;13.80;99.90;;;;;;4949976;28;20594;-73
2024/04/04 07:14:16;;;;;;;1.83;0.63;;;13.80;99.90;;;;;;4949785;28;20188;-73
2024/04/04 07:16:41;;;;;;;3.20;0.70;;;13.80;99.90;;;;;;4934565;28;20689;-74
2024/04/04 07:19:07;;;;;;;3.00;0.70;;;13.80;99.90;;;;;;4964322;28;20185;-74
2024/04/04 07:21:33;;;;;;;3.23;0.60;;;13.80;99.90;;;;;;4945730;28;20563;-74
2024/04/04 07:23:59;;;;;;;4.27;1.43;;;13.70;99.90;;;;;;4991652;28;20719;-74
2024/04/04 07:26:25;;;;;;;3.40;0.60;;;13.70;99.90;;;;;;4943020;28;20208;-74
2024/04/04 07:28:50;;;;;;;3.53;0.73;;;13.70;99.90;;;;;;4993923;28;20531;-74
2024/04/04 07:31:16;;;;;;;2.90;0.70;;;13.70;99.90;;;;;;4954227;28;20673;-74
2024/04/04 07:33:42;;;;;;;2.77;0.80;;;13.80;99.90;;;;;;5047103;22;20216;-77
2024/04/04 07:36:08;;;;;;;3.00;0.60;;;13.80;99.90;;;;;;5071357;28;21143;-77
2024/04/04 07:38:34;;;;;;;2.90;0.70;;;13.80;99.90;;;;;;5072169;28;20259;-77
2024/04/04 07:41:06;;;;;;;2.60;0.83;;;13.80;99.90;;;;;;5055964;28;20683;-78
2024/04/04 07:43:33;;;;;;;1.70;0.70;;;13.80;99.90;;;;;;5073335;28;20188;-77
2024/04/04 07:46:01;;;;;;;2.13;0.70;;;13.80;99.90;;;;;;5072884;28;20677;-78
2024/04/04 07:48:27;;;;;;;2.30;0.73;;;13.80;99.90;;;;;;5068466;28;20586;-78
2024/04/04 07:50:53;;;;;;;3.50;0.80;;;13.80;99.90;;;;;;5074049;28;20590;-78
2024/04/04 07:53:19;;;;;;;2.47;0.60;;;13.90;99.90;;;;;;5073855;28;20616;-78
2024/04/04 07:55:45;;;;;;;2.83;0.60;;;13.90;99.90;;;;;;5072698;28;20692;-83
2024/04/04 07:58:11;;;;;;;1.70;0.70;;;13.90;99.90;;;;;;5071746;28;20216;-76
2024/04/04 08:00:36;;;;;;;2.77;0.70;;;14.00;99.90;;;;;;5071504;28;20684;-76
2024/04/04 08:03:02;;;;;;;1.30;0.60;;;14.00;99.90;;;;;;5072485;28;20210;-77
2024/04/04 08:05:29;;;;;;;3.90;0.70;;;14.00;99.90;;;;;;5067699;28;20614;-78
2024/04/04 08:07:55;;;;;;;2.53;0.80;;;14.00;99.90;;;;;;5045391;28;20192;-77
2024/04/04 08:10:21;;;;;;;2.57;0.90;;;14.00;99.90;;;;;;5067062;28;20685;-77
2024/04/04 08:12:46;;;;;;;4.90;1.00;;;14.10;99.90;;;;;;5071914;28;20211;-76
2024/04/04 08:15:12;;;;;;;2.00;1.03;;;14.10;99.90;;;;;;5055185;28;20188;-77
2024/04/04 08:17:41;;;;;;;3.40;0.70;;;14.10;99.90;;;;;;5071594;28;20184;-76
2024/04/04 08:20:17;;;;;;;2.30;0.60;;;14.20;99.90;;;;;;5055326;28;20704;-76
2024/04/04 08:22:46;;;;;;;1.30;0.50;;;14.20;99.90;;;;;;5072281;28;20651;-76
2024/04/04 08:25:15;;;;;;;2.53;0.50;;;14.10;99.90;;;;;;5070308;28;20587;-76
2024/04/04 08:27:44;;;;;;;1.80;0.40;;;14.00;99.90;;;;;;5071916;28;20583;-77
2024/04/04 08:30:11;;;;;;;1.57;0.40;;;14.00;99.90;;;;;;5071988;28;20586;-77
2024/04/04 08:32:37;;;;;;;1.10;0.40;;;13.90;99.90;;;;;;5071566;28;20646;-78
2024/04/04 08:35:06;;;;;;;1.70;0.50;;;13.90;99.90;;;;;;5073103;28;20586;-78
2024/04/04 08:37:33;;;;;;;1.60;0.50;;;13.80;99.90;;;;;;5053739;28;20701;-82
2024/04/04 08:39:59;;;;;;;1.97;0.53;;;13.80;99.90;;;;;;5072866;28;20673;-78
2024/04/04 08:42:30;;;;;;;1.30;0.50;;;13.80;99.90;;;;;;5070061;28;20633;-78
2024/04/04 08:44:56;;;;;;;2.17;0.50;;;13.80;99.90;;;;;;5071512;28;20582;-77
2024/04/04 08:47:23;;;;;;;1.20;0.50;;;13.80;99.90;;;;;;5072313;28;20168;-77
2024/04/04 08:49:50;;;;;;;1.80;0.70;;;13.80;99.90;;;;;;5071513;28;20705;-77
2024/04/04 08:52:16;;;;;;;1.50;0.43;;;13.80;99.90;;;;;;5054835;28;20578;-77
2024/04/04 08:54:42;;;;;;;1.63;0.50;;;13.80;99.90;;;;;;5071470;28;20587;-77
2024/04/04 08:57:08;;;;;;;1.67;0.50;;;13.90;99.90;;;;;;5071374;28;20590;-77
2024/04/04 08:59:34;;;;;;;1.53;0.50;;;14.00;99.90;;;;;;5071406;28;20169;-77
2024/04/04 09:02:00;;;;;;;1.77;0.50;;;14.00;99.90;;;;;;5071366;28;20721;-77
2024/04/04 09:04:31;;;;;;;1.20;0.50;;;14.10;99.90;;;;;;5071240;28;20586;-77
2024/04/04 09:06:56;;;;;;;1.60;0.40;;;14.20;99.90;;;;;;5076051;28;20686;-77
2024/04/04 09:09:26;;;;;;;1.50;0.60;;;14.30;99.90;;;;;;5072404;28;21170;-77
2024/04/04 09:11:51;;;;;;;1.20;0.40;;;14.30;99.90;;;;;;5072940;28;20594;-78
2024/04/04 09:14:17;;;;;;;1.73;0.70;;;14.30;99.90;;;;;;5070693;28;20985;-77
2024/04/04 09:16:44;;;;;;;2.50;0.60;;;14.40;99.90;;;;;;5054387;28;20180;-77
2024/04/04 09:19:13;;;;;;;2.47;0.80;;;14.40;99.90;;;;;;5071494;28;20180;-77
2024/04/04 09:21:39;;;;;;;1.77;0.67;;;14.50;99.90;;;;;;5072876;28;20622;-77
2024/04/04 09:24:10;;;;;;;1.93;0.43;;;14.60;99.90;;;;;;5070970;28;20642;-77
2024/04/04 09:26:37;;;;;;;2.00;0.60;;;14.60;99.90;;;;;;5070842;28;20590;-77
2024/04/04 09:29:06;;;;;;;2.23;0.50;;;14.70;99.90;;;;;;5071960;28;20685;-77
2024/04/04 09:31:41;;;;;;;1.73;0.50;;;14.70;99.90;;;;;;5072398;28;20575;-77
2024/04/04 09:34:10;;;;;;;1.43;0.50;;;14.80;99.90;;;;;;5053633;28;20638;-77
2024/04/04 09:36:37;;;;;;;1.30;0.50;;;14.90;99.90;;;;;;5072031;28;20599;-77
2024/04/04 09:39:08;;;;;;;1.50;0.50;;;15.10;99.90;;;;;;5071644;28;20593;-77
2024/04/04 09:41:37;;;;;;;1.30;0.50;;;15.30;99.90;;;;;;5071804;28;20634;-77
2024/04/04 09:44:05;;;;;;;1.20;0.40;;;15.50;99.90;;;;;;5070426;28;20714;-77
2024/04/04 09:46:35;;;;;;;1.20;0.50;;;15.80;99.90;;;;;;5070438;28;21193;-78
2024/04/04 09:49:01;;;;;;;4.40;0.53;;;16.00;99.90;;;;;;5087001;28;20918;-77
2024/04/04 09:51:27;;;;;;;1.30;0.50;;;16.30;99.90;;;;;;5070292;28;20625;-77
2024/04/04 09:53:54;;;;;;;1.47;0.40;;;16.60;99.90;;;;;;5071323;28;20633;-78
2024/04/04 09:56:21;;;;;;;1.53;0.40;;;16.90;99.90;;;;;;5071964;28;20677;-78
2024/04/04 09:58:48;;;;;;;2.20;0.80;;;17.10;99.90;;;;;;5070406;28;20643;-78
2024/04/04 10:01:18;;;;;;;1.60;0.57;;;17.20;99.90;;;;;;5068730;28;20630;-78
2024/04/04 10:03:50;;;;;;;1.97;0.43;;;17.40;99.90;;;;;;5069358;28;21357;-78
2024/04/04 10:06:36;;;;;;;1.20;0.40;;;17.60;99.90;;;;;;5069664;28;20578;-78
2024/04/04 10:09:16;;;;;;;1.77;0.60;;;17.70;99.90;;;;;;5069179;28;20587;-78
2024/04/04 10:11:42;;;;;;;1.30;0.60;;;17.80;99.90;;;;;;5069645;28;20697;-78
2024/04/04 10:14:22;;;;;;;1.40;0.60;;;17.80;99.90;;;;;;5069322;28;21006;-78
2024/04/04 10:16:52;;;;;;;1.53;0.60;;;17.70;99.90;;;;;;5068131;28;20594;-78
2024/04/04 10:19:23;;;;;;;2.93;0.57;;;17.70;99.90;;;;;;5069560;28;20590;-78
2024/04/04 10:21:49;;;;;;;1.33;0.50;;;17.70;99.90;;;;;;5068381;28;20673;-78
2024/04/04 10:24:42;;;;;;;3.07;0.60;;;17.80;99.90;;;;;;5069739;28;20618;-78
2024/04/04 10:27:10;;;;;;;2.10;0.60;;;17.80;99.90;;;;;;5065336;28;20997;-78
2024/04/04 10:29:38;;;;;;;1.50;0.60;;;17.90;99.90;;;;;;5071054;28;20606;-78
2024/04/04 10:32:05;;;;;;;1.93;0.60;;;17.90;99.90;;;;;;5069773;28;20681;-78
2024/04/04 10:34:31;;;;;;;2.90;0.60;;;17.90;99.90;;;;;;5070891;28;20606;-78
2024/04/04 10:36:57;;;;;;;2.43;0.70;;;17.90;99.90;;;;;;5069754;28;20602;-78
2024/04/04 10:39:22;;;;;;;1.47;0.50;;;18.00;99.90;;;;;;5052812;28;20686;-78
2024/04/04 10:41:59;;;;;;;1.60;0.50;;;18.00;99.90;;;;;;5070906;28;20208;-78
2024/04/04 10:44:26;;;;;;;5.13;1.60;;;18.00;99.90;;;;;;5070748;28;20591;-78
2024/04/04 10:46:55;;;;;;;1.30;0.60;;;18.00;99.90;;;;;;5067821;28;20595;-78
2024/04/04 10:49:23;;;;;;;1.70;0.63;;;18.00;99.90;;;;;;5069149;28;20598;-78
2024/04/04 10:51:59;;;;;;;1.60;0.80;;;18.00;99.90;;;;;;5070832;28;21081;-78
2024/04/04 10:54:26;;;;;;;2.60;0.60;;;18.00;99.90;;;;;;5069340;28;20650;-78
2024/04/04 10:56:52;;;;;;;1.87;0.50;;;18.10;99.90;;;;;;5052655;28;20681;-78
2024/04/04 10:59:19;;;;;;;2.07;0.57;;;18.10;99.90;;;;;;5070398;28;20709;-78
2024/04/04 11:01:49;;;;;;;1.97;0.43;;;18.10;99.90;;;;;;5070124;28;20668;-78
2024/04/04 11:04:16;;;;;;;1.67;0.50;;;18.10;99.90;;;;;;5069367;28;20706;-78
2024/04/04 11:06:43;;;;;;;1.50;0.50;;;18.20;99.90;;;;;;5069503;28;20590;-78
2024/04/04 11:09:16;;;;;;;2.47;0.50;;;18.20;99.90;;;;;;5070553;28;20571;-78
2024/04/04 11:11:46;;;;;;;1.80;0.50;;;18.20;99.90;;;;;;5070597;28;20589;-78
2024/04/04 11:14:11;;;;;;;2.03;0.70;;;18.30;99.90;;;;;;5069252;28;20653;-78
2024/04/04 11:16:38;;;;;;;1.67;0.50;;;18.30;99.90;;;;;;5070879;28;20582;-78
2024/04/04 11:19:08;;;;;;;1.73;0.53;;;18.30;99.90;;;;;;5070331;28;20191;-78
2024/04/04 11:21:34;;;;;;;2.03;0.73;;;18.20;99.90;;;;;;5070206;28;20634;-78
2024/04/04 11:24:00;;;;;;;2.37;0.50;;;18.20;99.90;;;;;;5068113;28;20611;-78
2024/04/04 11:26:26;;;;;;;1.40;0.40;;;18.10;99.90;;;;;;5068716;28;20590;-78
2024/04/04 11:28:52;;;;;;;2.37;0.70;;;18.00;99.90;;;;;;5084827;28;20681;-78
2024/04/04 11:31:18;;;;;;;1.60;0.57;;;17.90;99.90;;;;;;5070508;28;20980;-77
2024/04/04 11:33:43;;;;;;;2.23;0.50;;;17.80;99.90;;;;;;5070302;28;20835;-77
2024/04/04 11:36:09;;;;;;;1.53;0.60;;;17.70;99.90;;;;;;5070616;28;20184;-77
2024/04/04 11:38:35;;;;;;;1.60;0.50;;;17.60;99.90;;;;;;5069925;28;20196;-78
2024/04/04 11:41:01;;;;;;;1.70;0.50;;;17.40;99.90;;;;;;5070973;28;20662;-77
2024/04/04 11:43:27;;;;;;;2.50;0.70;;;17.10;99.90;;;;;;5070078;28;20705;-78
2024/04/04 11:45:53;;;;;;;1.80;0.60;;;16.70;99.90;;;;;;5069084;28;20176;-78
2024/04/04 11:48:18;;;;;;;1.77;0.50;;;16.40;99.90;;;;;;5069741;28;20984;-78
2024/04/04 11:50:45;;;;;;;3.97;0.50;;;16.10;99.90;;;;;;5065454;28;20622;-78
2024/04/04 11:53:12;;;;;;;3.07;0.77;;;15.80;99.90;;;;;;5067161;28;20715;-78
2024/04/04 11:55:41;;;;;;;3.13;1.50;;;15.50;99.90;;;;;;5069168;28;20675;-78
2024/04/04 11:58:07;;;;;;;2.77;1.10;;;15.30;99.90;;;;;;5068280;28;20602;-77
2024/04/04 12:00:34;;;;;;;2.10;0.70;;;15.00;99.90;;;;;;5068434;28;21110;-78
2024/04/04 12:03:06;;;;;;;2.57;0.60;;;14.90;99.90;;;;;;5051747;28;20697;-77
2024/04/04 12:05:34;;;;;;;1.50;0.60;;;14.80;99.90;;;;;;5068515;28;20678;-77
2024/04/04 12:08:00;;;;;;;2.30;0.70;;;14.60;99.90;;;;;;5069144;28;20950;-77
2024/04/04 12:10:26;;;;;;;1.50;0.50;;;14.60;99.90;;;;;;5069739;28;20976;-77
2024/04/04 12:12:53;;;;;;;1.40;0.50;;;14.50;99.90;;;;;;5067859;28;20610;-77
2024/04/04 12:15:20;;;;;;;2.53;0.63;;;14.40;99.90;;;;;;5065048;28;20180;-77
2024/04/04 12:17:47;;;;;;;2.73;0.80;;;14.40;99.90;;;;;;5073490;28;20602;-77
2024/04/04 12:20:19;;;;;;;3.13;0.90;;;14.30;99.90;;;;;;5072108;28;20574;-78
2024/04/04 12:22:45;;;;;;;1.60;0.70;;;14.30;99.90;;;;;;5071967;28;20625;-78
2024/04/04 12:25:15;;;;;;;5.00;0.80;;;14.30;99.90;;;;;;5065344;28;21159;-78
2024/04/04 12:27:44;;;;;;;1.83;0.70;;;14.20;99.90;;;;;;5064178;28;20601;-78
2024/04/04 12:30:10;;;;;;;2.00;0.90;;;14.20;99.90;;;;;;5068375;28;20589;-77
2024/04/04 12:32:36;;;;;;;2.73;0.70;;;14.10;99.90;;;;;;5065880;28;20712;-77
2024/04/04 12:35:02;;;;;;;2.30;0.70;;;14.00;99.90;;;;;;5065475;28;21149;-77
2024/04/04 12:37:28;;;;;;;1.77;0.67;;;14.00;99.90;;;;;;5064603;28;20590;-77
2024/04/04 12:39:54;;;;;;;3.60;0.60;;;13.90;99.90;;;;;;5072958;28;21186;-77
2024/04/04 12:42:20;;;;;;;2.70;0.90;;;13.80;99.90;;;;;;5072791;28;20535;-78
2024/04/04 12:44:46;;;;;;;3.50;0.90;;;13.70;99.90;;;;;;5072551;28;20173;-78
2024/04/04 12:47:12;;;;;;;3.37;0.80;;;13.60;99.90;;;;;;5069495;28;20176;-78
2024/04/04 12:49:38;;;;;;;6.47;1.20;;;13.40;99.90;;;;;;5054704;28;20610;-77